Time;durP1;ratioP1;P1;durP2;ratioP2;P2;SDS_P1;SDS_P2;PMS_P1;PMS_P2;Temp;Humidity;BMP_temperature;BMP_pressure;BME280_temperature;BME280_humidity;BME280_pressure;Samples;Min_cycle;Max_cycle;Signal;HPM_P1;HPM_P2
2023/07/03 00:00:46;;;;;;;13.63;3.13;;;;;;;16.00;61.85;100802.56;7379470;19;19929;-72
2023/07/03 00:03:15;;;;;;;14.32;3.25;;;;;;;15.98;61.58;100805.50;7381152;19;19918;-72
2023/07/03 00:05:47;;;;;;;11.35;3.03;;;;;;;16.00;62.00;100805.28;7378825;19;19932;-73
2023/07/03 00:08:19;;;;;;;11.18;2.90;;;;;;;15.98;62.42;100797.34;7382823;19;20414;-72
2023/07/03 00:10:48;;;;;;;7.45;2.92;;;;;;;15.96;62.31;100798.63;7380987;19;20454;-72
2023/07/03 00:13:16;;;;;;;10.93;3.00;;;;;;;15.95;62.41;100799.66;7381649;19;20013;-71
2023/07/03 00:15:45;;;;;;;17.73;3.05;;;;;;;15.94;62.29;100790.66;7383654;19;19970;-72
2023/07/03 00:18:14;;;;;;;7.95;2.97;;;;;;;15.91;62.40;100791.13;7382080;19;19928;-72
2023/07/03 00:20:42;;;;;;;9.88;2.95;;;;;;;15.89;62.75;100802.19;7384136;19;19924;-72
2023/07/03 00:23:14;;;;;;;9.32;3.47;;;;;;;15.89;62.83;100801.34;7377620;19;19932;-71
2023/07/03 00:25:43;;;;;;;10.30;3.08;;;;;;;15.86;62.50;100802.63;7382064;19;19918;-72
2023/07/03 00:28:12;;;;;;;9.77;3.08;;;;;;;15.82;63.14;100792.38;7380726;19;19961;-72
2023/07/03 00:30:40;;;;;;;14.70;3.13;;;;;;;15.81;63.07;100798.84;7381135;19;19915;-71
2023/07/03 00:33:09;;;;;;;18.17;3.00;;;;;;;15.78;63.48;100791.97;7381120;19;19933;-72
2023/07/03 00:35:38;;;;;;;10.45;3.28;;;;;;;15.77;63.40;100797.63;7381117;19;19926;-72
2023/07/03 00:38:08;;;;;;;11.48;3.13;;;;;;;15.78;63.10;100793.88;7380791;19;19926;-72
2023/07/03 00:40:39;;;;;;;8.63;2.65;;;;;;;15.76;63.68;100795.94;7380497;19;19927;-72
2023/07/03 00:43:08;;;;;;;12.27;3.40;;;;;;;15.73;63.72;100782.78;7377633;19;19933;-72
2023/07/03 00:45:38;;;;;;;11.80;3.22;;;;;;;15.74;63.42;100784.47;7379992;19;19919;-72
2023/07/03 00:48:08;;;;;;;9.85;3.38;;;;;;;15.72;64.25;100784.69;7378071;19;20634;-72
2023/07/03 00:50:37;;;;;;;8.13;3.13;;;;;;;15.72;63.70;100786.56;7381334;19;19922;-73
2023/07/03 00:53:09;;;;;;;8.52;3.17;;;;;;;15.70;63.88;100784.06;7380592;19;19922;-73
2023/07/03 00:55:40;;;;;;;12.77;3.88;;;;;;;15.68;64.12;100779.88;7380105;19;19939;-73
2023/07/03 00:58:09;;;;;;;11.88;3.17;;;;;;;15.66;64.66;100784.69;7377526;19;19933;-73
2023/07/03 01:00:45;;;;;;;14.23;3.83;;;;;;;15.63;64.58;100787.81;7380046;19;19937;-72
2023/07/03 01:03:24;;;;;;;14.18;3.53;;;;;;;15.58;65.62;100774.88;7379364;19;19929;-73
2023/07/03 01:05:55;;;;;;;10.63;3.33;;;;;;;15.56;65.33;100781.56;7379990;19;19926;-72
2023/07/03 01:08:26;;;;;;;11.75;3.25;;;;;;;15.47;65.75;100772.78;7378475;19;19918;-72
2023/07/03 01:10:58;;;;;;;12.30;3.55;;;;;;;15.42;65.81;100769.88;7380147;19;19986;-72
2023/07/03 01:13:31;;;;;;;12.60;3.42;;;;;;;15.37;66.07;100772.38;7378011;19;19918;-73
2023/07/03 01:16:01;;;;;;;10.70;3.33;;;;;;;15.32;66.07;100774.88;7379091;19;20396;-72
2023/07/03 01:18:31;;;;;;;11.52;4.30;;;;;;;15.28;66.15;100768.19;7382000;19;19998;-73
2023/07/03 01:21:08;;;;;;;9.13;3.30;;;;;;;15.22;67.13;100767.19;7375606;19;19921;-72
2023/07/03 01:23:43;;;;;;;9.27;3.40;;;;;;;15.22;66.51;100769.06;7379735;19;19930;-72
2023/07/03 01:26:17;;;;;;;15.70;3.65;;;;;;;15.19;66.94;100781.16;7380226;19;19918;-73
2023/07/03 01:28:48;;;;;;;13.82;3.60;;;;;;;15.21;66.62;100772.81;7379663;19;19936;-72
2023/07/03 01:31:18;;;;;;;12.48;2.83;;;;;;;15.22;66.71;100760.91;7378475;19;20027;-73
2023/07/03 01:33:47;;;;;;;13.43;3.60;;;;;;;15.21;66.68;100762.78;7379238;19;19922;-73
2023/07/03 01:36:19;;;;;;;9.35;2.58;;;;;;;15.21;67.41;100748.38;7377895;19;20509;-72
2023/07/03 01:38:50;;;;;;;13.82;3.35;;;;;;;15.21;67.87;100767.38;7377705;19;19918;-72
2023/07/03 01:41:22;;;;;;;12.38;3.03;;;;;;;15.21;67.71;100757.38;7378993;19;20025;-72
2023/07/03 01:43:50;;;;;;;;;;;;;;;15.09;69.42;100759.06;7380226;19;19922;-73
2023/07/03 01:46:19;;;;;;;11.80;3.35;;;;;;;15.21;68.18;100754.66;7377653;19;19941;-72
2023/07/03 01:48:48;;;;;;;17.38;4.57;;;;;;;15.23;67.15;100757.97;7377893;19;19994;-73
2023/07/03 01:51:26;;;;;;;12.18;3.15;;;;;;;15.25;68.36;100755.91;7380504;19;20292;-72
2023/07/03 01:54:05;;;;;;;14.60;3.40;;;;;;;15.25;68.26;100758.63;7376165;19;19926;-72
2023/07/03 01:56:41;;;;;;;9.95;3.17;;;;;;;15.27;69.03;100756.50;7384724;19;20353;-72
2023/07/03 01:59:12;;;;;;;15.48;3.17;;;;;;;15.28;68.25;100744.63;7384569;19;19933;-71
2023/07/03 02:01:49;;;;;;;12.20;3.25;;;;;;;15.29;68.61;100749.00;7386285;19;19934;-73
2023/07/03 02:04:27;;;;;;;8.00;3.10;;;;;;;15.29;68.86;100756.31;7385397;19;21256;-73
2023/07/03 02:06:58;;;;;;;10.35;2.97;;;;;;;15.31;67.90;100746.09;7386257;19;19932;-72
2023/07/03 02:09:27;;;;;;;;;;;;;;;15.16;70.15;100749.00;7388319;19;19987;-72
2023/07/03 02:11:58;;;;;;;9.23;3.15;;;;;;;15.26;68.92;100754.88;7385307;19;20331;-73
2023/07/03 02:14:27;;;;;;;14.40;3.78;;;;;;;15.28;67.96;100769.03;7385410;19;19922;-73
2023/07/03 02:16:59;;;;;;;12.13;3.90;;;;;;;15.31;67.78;100775.94;7382465;19;20344;-73
2023/07/03 02:19:28;;;;;;;10.13;2.55;;;;;;;15.33;67.18;100773.84;7388854;19;19919;-73
2023/07/03 02:21:57;;;;;;;10.68;2.78;;;;;;;15.34;66.68;100773.66;7383815;19;19954;-72
2023/07/03 02:24:26;;;;;;;11.90;2.78;;;;;;;15.36;66.55;100762.56;7383140;19;19922;-72
2023/07/03 02:26:58;;;;;;;8.25;2.15;;;;;;;15.34;66.68;100760.06;7385195;19;19937;-72
2023/07/03 02:29:26;;;;;;;11.70;2.80;;;;;;;15.31;65.91;100759.66;7383257;19;19947;-72
2023/07/03 02:31:55;;;;;;;9.10;2.42;;;;;;;15.30;66.07;100761.53;7383760;19;19933;-73
2023/07/03 02:34:24;;;;;;;7.82;2.50;;;;;;;15.27;65.30;100758.41;7382272;19;19989;-72
2023/07/03 02:36:53;;;;;;;9.55;2.10;;;;;;;15.25;65.27;100752.34;7385846;19;19918;-72
2023/07/03 02:39:22;;;;;;;11.25;2.45;;;;;;;15.20;65.40;100750.25;7385274;19;19925;-72
2023/07/03 02:41:51;;;;;;;9.85;2.13;;;;;;;15.18;65.29;100746.94;7385836;19;22173;-72
2023/07/03 02:44:22;;;;;;;8.73;2.08;;;;;;;15.14;65.89;100745.69;7384553;19;19990;-72
2023/07/03 02:46:51;;;;;;;5.75;2.08;;;;;;;15.11;65.73;100754.22;7382074;19;19927;-73
2023/07/03 02:49:19;;;;;;;5.80;1.92;;;;;;;15.07;66.24;100741.28;7382946;19;20426;-73
2023/07/03 02:51:48;;;;;;;8.70;3.13;;;;;;;15.04;65.89;100736.28;7383354;19;19918;-73
2023/07/03 02:54:17;;;;;;;10.90;2.42;;;;;;;15.01;66.48;100747.56;7380085;19;19926;-72
2023/07/03 02:56:46;;;;;;;11.35;2.65;;;;;;;14.97;67.40;100733.59;7384265;19;19926;-73
2023/07/03 02:59:15;;;;;;;10.00;2.67;;;;;;;14.94;67.56;100734.00;7383603;19;19927;-73
2023/07/03 03:01:46;;;;;;;9.75;2.50;;;;;;;14.89;68.78;100737.31;7383202;19;20574;-73
2023/07/03 03:04:16;;;;;;;9.18;2.42;;;;;;;14.87;69.25;100739.44;7383087;19;20280;-72
2023/07/03 03:06:45;;;;;;;12.68;3.20;;;;;;;14.86;69.69;100737.75;7378824;19;19939;-72
2023/07/03 03:09:14;;;;;;;14.13;3.17;;;;;;;14.86;69.49;100720.63;7383866;19;19923;-73
2023/07/03 03:11:43;;;;;;;10.85;2.88;;;;;;;14.85;69.74;100721.69;7383817;19;20399;-72
2023/07/03 03:14:13;;;;;;;19.08;4.35;;;;;;;14.84;69.78;100722.75;7377513;19;20349;-72
2023/07/03 03:16:41;;;;;;;13.85;3.15;;;;;;;14.83;69.97;100721.06;7384574;19;21203;-72
2023/07/03 03:19:13;;;;;;;16.17;4.07;;;;;;;14.80;70.76;100725.00;7383394;19;19936;-72
2023/07/03 03:21:41;;;;;;;7.22;2.30;;;;;;;14.79;70.04;100722.53;7378744;19;19997;-72
2023/07/03 03:24:10;;;;;;;10.98;3.00;;;;;;;14.77;70.09;100728.16;7377383;19;19942;-73
2023/07/03 03:26:39;;;;;;;13.48;3.63;;;;;;;14.77;69.99;100724.59;7382569;19;21209;-72
2023/07/03 03:29:07;;;;;;;13.98;3.80;;;;;;;14.75;69.76;100722.13;7379317;19;19915;-72
2023/07/03 03:31:36;;;;;;;12.38;2.90;;;;;;;14.73;70.07;100717.94;7383500;19;19966;-72
2023/07/03 03:34:05;;;;;;;12.65;2.47;;;;;;;14.72;69.62;100721.66;7381838;19;20367;-72
2023/07/03 03:36:38;;;;;;;8.02;2.22;;;;;;;14.71;69.36;100720.84;7380556;19;19928;-72
2023/07/03 03:39:07;;;;;;;11.30;2.17;;;;;;;14.70;69.05;100718.34;7382118;19;19928;-72
2023/07/03 03:41:36;;;;;;;9.10;2.15;;;;;;;14.68;69.01;100723.13;7380747;19;19922;-72
2023/07/03 03:44:05;;;;;;;10.20;2.08;;;;;;;14.65;69.06;100723.56;7381812;19;19931;-73
2023/07/03 03:46:34;;;;;;;8.07;2.20;;;;;;;14.63;69.33;100722.91;7383579;19;19930;-73
2023/07/03 03:49:03;;;;;;;10.07;2.90;;;;;;;14.60;69.12;100715.19;7381273;19;19927;-73
2023/07/03 03:51:32;;;;;;;11.88;2.80;;;;;;;14.58;69.27;100722.72;7382052;19;19958;-72
2023/07/03 03:54:03;;;;;;;4.03;1.77;;;;;;;14.58;68.70;100720.84;7382481;19;19978;-72
2023/07/03 03:56:32;;;;;;;9.88;2.22;;;;;;;14.58;68.49;100728.97;7380565;19;19919;-72
2023/07/03 03:59:01;;;;;;;11.88;2.05;;;;;;;14.59;68.22;100729.78;7382350;19;19994;-72
2023/07/03 04:01:30;;;;;;;10.25;2.38;;;;;;;14.60;68.33;100732.31;7378660;19;20360;-73
2023/07/03 04:03:58;;;;;;;10.10;2.15;;;;;;;14.61;67.82;100727.72;7382306;19;19932;-72
2023/07/03 04:06:29;;;;;;;8.15;1.88;;;;;;;14.61;67.52;100731.28;7382085;19;19923;-73
2023/07/03 04:08:59;;;;;;;9.90;2.53;;;;;;;14.64;67.45;100738.97;7383930;19;19919;-72
2023/07/03 04:11:30;;;;;;;13.38;2.33;;;;;;;14.65;67.15;100731.69;7380855;19;19922;-73
2023/07/03 04:14:00;;;;;;;7.63;2.08;;;;;;;14.64;67.03;100732.72;7380705;19;20265;-72
2023/07/03 04:16:32;;;;;;;10.15;2.00;;;;;;;14.66;66.66;100734.19;7381008;19;19930;-72
2023/07/03 04:19:01;;;;;;;7.82;1.83;;;;;;;14.65;66.79;100735.22;7384017;19;20255;-72
2023/07/03 04:21:30;;;;;;;7.05;1.80;;;;;;;14.67;66.65;100733.13;7378221;19;19926;-72
2023/07/03 04:23:59;;;;;;;10.07;2.42;;;;;;;14.69;66.96;100735.66;7379382;19;19922;-72
2023/07/03 04:26:30;;;;;;;6.20;2.28;;;;;;;14.68;67.20;100733.97;7382275;19;19918;-73
2023/07/03 04:28:59;;;;;;;7.13;1.95;;;;;;;14.68;66.85;100733.97;7380417;19;19922;-72
2023/07/03 04:31:31;;;;;;;5.90;1.70;;;;;;;14.69;66.63;100730.22;7378425;19;19923;-73
2023/07/03 04:33:59;;;;;;;8.60;2.10;;;;;;;14.69;66.62;100741.91;7379332;19;20316;-72
2023/07/03 04:36:28;;;;;;;6.45;1.77;;;;;;;14.70;66.37;100738.16;7380274;19;20498;-72
2023/07/03 04:38:57;;;;;;;8.30;2.55;;;;;;;14.71;66.46;100737.09;7377867;19;19923;-72
2023/07/03 04:41:27;;;;;;;5.78;1.50;;;;;;;14.73;66.40;100742.31;7377597;19;20339;-73
2023/07/03 04:44:00;;;;;;;8.07;1.90;;;;;;;14.75;66.33;100751.09;7382446;19;19934;-73
2023/07/03 04:46:30;;;;;;;5.72;1.48;;;;;;;14.76;66.50;100744.63;7382599;19;19919;-73
2023/07/03 04:49:04;;;;;;;8.85;1.75;;;;;;;14.77;66.06;100744.41;7382141;19;19936;-73
2023/07/03 04:51:33;;;;;;;7.47;2.28;;;;;;;14.78;66.20;100754.22;7383323;19;19943;-72
2023/07/03 04:54:03;;;;;;;5.28;1.40;;;;;;;14.81;65.75;100750.25;7381022;19;19985;-72
2023/07/03 04:56:35;;;;;;;9.10;1.63;;;;;;;14.82;65.79;100760.06;7381139;19;19947;-72
2023/07/03 04:59:08;;;;;;;4.25;1.38;;;;;;;14.84;65.20;100758.81;7377351;19;19915;-72
2023/07/03 05:01:37;;;;;;;10.13;1.52;;;;;;;14.87;65.25;100765.72;7380864;19;19923;-72
2023/07/03 05:04:05;;;;;;;7.25;1.25;;;;;;;14.89;64.91;100760.91;7377946;19;19982;-72
2023/07/03 05:06:34;;;;;;;9.10;1.95;;;;;;;14.92;64.81;100755.09;7377655;19;19918;-73
2023/07/03 05:09:03;;;;;;;3.60;1.20;;;;;;;14.96;64.65;100764.47;7379400;19;19938;-72
2023/07/03 05:11:32;;;;;;;7.65;1.60;;;;;;;15.02;64.85;100762.78;7377037;19;19927;-70
2023/07/03 05:14:01;;;;;;;7.03;1.70;;;;;;;15.09;64.72;100763.63;7378493;19;19926;-72
2023/07/03 05:16:33;;;;;;;8.52;1.50;;;;;;;15.12;64.35;100766.75;7377947;19;20348;-71
2023/07/03 05:19:01;;;;;;;7.47;1.40;;;;;;;15.15;64.01;100765.50;7382498;19;19930;-72
2023/07/03 05:21:30;;;;;;;10.48;2.00;;;;;;;15.15;64.25;100763.63;7380159;19;19930;-73
2023/07/03 05:23:59;;;;;;;5.65;1.20;;;;;;;15.17;64.30;100761.56;7376940;19;19923;-72
2023/07/03 05:26:33;;;;;;;6.97;1.50;;;;;;;15.20;64.29;100763.00;7381248;19;19964;-72
2023/07/03 05:29:02;;;;;;;9.38;1.35;;;;;;;15.22;63.83;100774.50;7374884;19;19928;-71
2023/07/03 05:31:33;;;;;;;4.32;1.02;;;;;;;15.25;63.83;100780.31;7376273;19;20326;-72
2023/07/03 05:34:02;;;;;;;9.02;1.60;;;;;;;15.26;63.73;100782.00;7377779;19;19922;-72
2023/07/03 05:36:31;;;;;;;5.53;1.40;;;;;;;15.28;63.62;100785.31;7377151;19;19918;-72
2023/07/03 05:39:00;;;;;;;5.00;1.33;;;;;;;15.31;63.81;100784.94;7377317;19;19923;-72
2023/07/03 05:41:28;;;;;;;5.45;1.17;;;;;;;15.35;63.62;100786.19;7377364;19;19982;-72
2023/07/03 05:43:57;;;;;;;6.50;1.70;;;;;;;15.39;63.43;100783.88;7380024;19;19915;-71
2023/07/03 05:46:26;;;;;;;7.57;1.63;;;;;;;15.43;63.67;100785.97;7379105;19;19922;-72
2023/07/03 05:48:57;;;;;;;5.97;1.50;;;;;;;15.50;63.64;100790.53;7380030;19;19974;-72
2023/07/03 05:51:26;;;;;;;8.32;1.52;;;;;;;15.54;63.48;100798.06;7379262;19;20539;-73
2023/07/03 05:53:56;;;;;;;6.95;1.40;;;;;;;15.64;62.88;100800.34;7376903;19;20264;-72
2023/07/03 05:56:25;;;;;;;6.90;1.35;;;;;;;15.73;62.67;100789.06;7380435;19;19926;-72
2023/07/03 05:58:53;;;;;;;5.13;1.25;;;;;;;15.89;62.39;100790.47;7374456;19;20004;-72
2023/07/03 06:01:22;;;;;;;4.50;1.30;;;;;;;15.99;62.26;100788.16;7375806;19;20422;-72
2023/07/03 06:03:51;;;;;;;8.77;1.75;;;;;;;16.06;61.89;100802.53;7376685;19;19952;-72
2023/07/03 06:06:22;;;;;;;8.57;1.77;;;;;;;16.13;60.98;100803.38;7375894;19;20407;-72
2023/07/03 06:08:51;;;;;;;4.40;1.00;;;;;;;16.06;61.24;100799.81;7372160;19;20345;-71
2023/07/03 06:11:20;;;;;;;5.60;1.33;;;;;;;16.03;61.53;100797.53;7379087;19;19926;-72
2023/07/03 06:13:48;;;;;;;7.20;1.20;;;;;;;16.01;62.11;100799.63;7375415;19;19926;-72
2023/07/03 06:16:18;;;;;;;8.32;1.40;;;;;;;15.98;62.15;100799.22;7377180;19;19926;-72
2023/07/03 06:18:46;;;;;;;6.25;1.40;;;;;;;15.95;62.12;100803.22;7377663;19;19927;-70
2023/07/03 06:21:15;;;;;;;9.93;1.52;;;;;;;15.92;62.57;100806.34;7375362;19;19929;-69
2023/07/03 06:23:46;;;;;;;4.18;1.00;;;;;;;15.87;62.57;100807.00;7375969;19;19977;-72
2023/07/03 06:26:15;;;;;;;6.45;1.27;;;;;;;15.83;62.90;100818.50;7368799;19;19930;-72
2023/07/03 06:28:44;;;;;;;7.15;1.35;;;;;;;15.80;63.55;100813.47;7375724;19;19930;-72
2023/07/03 06:31:12;;;;;;;13.35;2.10;;;;;;;15.72;64.62;100819.97;7373722;19;19954;-72
2023/07/03 06:33:41;;;;;;;9.65;1.40;;;;;;;15.62;65.72;100829.63;7374470;19;19918;-73
2023/07/03 06:36:10;;;;;;;11.43;1.30;;;;;;;15.46;66.17;100814.56;7372125;19;19926;-72
2023/07/03 06:38:39;;;;;;;9.82;1.50;;;;;;;15.28;67.04;100817.06;7375210;19;19986;-72
2023/07/03 06:41:10;;;;;;;5.60;1.88;;;;;;;15.11;68.94;100811.22;7374939;19;19930;-72
2023/07/03 06:43:39;;;;;;;7.00;1.65;;;;;;;14.99;67.85;100813.72;7381629;19;19945;-72
2023/07/03 06:46:10;;;;;;;7.20;1.90;;;;;;;14.90;68.68;100811.41;7381566;19;19921;-74
2023/07/03 06:48:39;;;;;;;7.32;1.40;;;;;;;14.80;68.65;100809.09;7381792;19;19923;-73
2023/07/03 06:51:09;;;;;;;4.43;1.20;;;;;;;14.77;69.72;100814.94;7383066;19;19930;-72
2023/07/03 06:53:38;;;;;;;9.40;1.50;;;;;;;14.84;70.29;100815.75;7378058;19;19978;-72
2023/07/03 06:56:11;;;;;;;10.25;1.70;;;;;;;14.95;70.47;100820.59;7385243;19;19919;-73
2023/07/03 06:58:40;;;;;;;4.25;1.50;;;;;;;15.10;70.94;100811.44;7383081;19;19922;-73
2023/07/03 07:01:09;;;;;;;10.85;1.60;;;;;;;15.26;70.98;100816.44;7376840;19;20006;-73
2023/07/03 07:03:39;;;;;;;8.30;1.77;;;;;;;15.41;71.04;100811.63;7380746;19;19929;-73
2023/07/03 07:06:13;;;;;;;7.32;1.48;;;;;;;15.55;70.85;100807.06;7382916;19;20746;-73
2023/07/03 07:08:42;;;;;;;4.97;1.35;;;;;;;15.66;69.72;100809.16;7382614;19;19918;-73
2023/07/03 07:11:16;;;;;;;10.55;1.80;;;;;;;15.70;70.31;100810.38;7383076;19;20426;-73
2023/07/03 07:13:47;;;;;;;6.18;1.20;;;;;;;15.73;69.93;100807.25;7382864;19;19926;-73
2023/07/03 07:16:17;;;;;;;10.35;1.98;;;;;;;15.72;69.77;100802.84;7381200;19;20009;-73
2023/07/03 07:18:49;;;;;;;6.85;1.50;;;;;;;15.68;70.02;100812.47;7386741;19;20498;-72
2023/07/03 07:21:18;;;;;;;6.30;1.67;;;;;;;15.62;69.90;100818.75;7379818;19;20693;-73
2023/07/03 07:23:51;;;;;;;3.78;1.20;;;;;;;15.52;68.72;100834.63;7380973;19;19946;-73
2023/07/03 07:26:25;;;;;;;6.50;1.88;;;;;;;15.39;69.02;100836.28;7383556;19;19978;-73
2023/07/03 07:28:54;;;;;;;5.00;1.02;;;;;;;15.26;69.78;100833.56;7383488;19;19938;-73
2023/07/03 07:31:24;;;;;;;4.30;0.90;;;;;;;15.15;69.95;100836.88;7385799;19;19934;-73
2023/07/03 07:33:53;;;;;;;5.63;1.13;;;;;;;15.15;70.92;100839.59;7382127;19;19981;-72
2023/07/03 07:36:24;;;;;;;5.90;1.20;;;;;;;15.21;71.28;100838.78;7383765;19;19922;-72
2023/07/03 07:38:53;;;;;;;5.68;1.58;;;;;;;15.24;70.44;100843.78;7382508;19;21137;-73
2023/07/03 07:41:25;;;;;;;8.55;1.40;;;;;;;15.31;71.69;100843.81;7382349;19;19922;-73
2023/07/03 07:43:54;;;;;;;4.50;1.23;;;;;;;15.37;71.91;100849.22;7381784;19;20011;-73
2023/07/03 07:46:25;;;;;;;8.80;1.20;;;;;;;15.45;71.79;100857.16;7380605;19;20304;-72
2023/07/03 07:48:54;;;;;;;3.65;1.35;;;;;;;15.49;72.39;100852.13;7379615;19;20325;-73
2023/07/03 07:51:22;;;;;;;5.13;1.00;;;;;;;15.56;72.89;100858.44;7380868;19;19933;-73
2023/07/03 07:53:51;;;;;;;6.80;1.35;;;;;;;15.59;71.41;100849.88;7380261;19;19933;-75
2023/07/03 07:56:20;;;;;;;8.27;1.88;;;;;;;15.57;70.92;100853.84;7384180;19;19919;-73
2023/07/03 07:58:51;;;;;;;9.35;1.20;;;;;;;15.64;70.62;100838.38;7381087;19;19949;-73
2023/07/03 08:01:20;;;;;;;4.47;1.20;;;;;;;15.66;70.29;100847.16;7378127;19;19945;-74
2023/07/03 08:03:49;;;;;;;5.30;1.00;;;;;;;15.69;71.45;100849.44;7384257;19;19918;-73
2023/07/03 08:06:19;;;;;;;6.10;1.35;;;;;;;15.74;70.80;100858.66;7382413;19;19922;-73
2023/07/03 08:08:47;;;;;;;7.40;1.73;;;;;;;15.76;70.81;100844.84;7381319;19;19926;-73
2023/07/03 08:11:16;;;;;;;7.88;1.50;;;;;;;15.78;71.21;100846.31;7381895;19;19926;-73
2023/07/03 08:13:45;;;;;;;6.53;1.38;;;;;;;15.83;71.14;100853.81;7381541;19;20348;-73
2023/07/03 08:16:17;;;;;;;6.70;1.83;;;;;;;15.87;72.17;100847.75;7386879;19;19925;-73
2023/07/03 08:18:46;;;;;;;6.38;1.20;;;;;;;15.91;71.26;100860.91;7383657;19;19929;-73
2023/07/03 08:21:15;;;;;;;5.65;1.33;;;;;;;15.87;71.52;100860.50;7383858;19;19918;-73
2023/07/03 08:23:44;;;;;;;6.35;1.52;;;;;;;15.87;71.48;100861.34;7380518;19;19918;-73
2023/07/03 08:26:20;;;;;;;5.32;1.30;;;;;;;15.91;71.97;100869.06;7380307;19;19925;-73
2023/07/03 08:28:49;;;;;;;8.60;1.20;;;;;;;15.95;70.47;100883.91;7380693;19;20546;-73
2023/07/03 08:31:21;;;;;;;5.95;1.00;;;;;;;15.92;70.43;100871.53;7384762;19;21027;-73
2023/07/03 08:33:52;;;;;;;3.33;1.05;;;;;;;15.97;69.99;100870.91;7380530;19;20245;-73
2023/07/03 08:36:20;;;;;;;7.35;1.25;;;;;;;16.02;69.73;100869.25;7378399;19;19929;-72
2023/07/03 08:38:49;;;;;;;5.13;1.17;;;;;;;16.13;69.69;100867.75;7380828;19;19938;-73
2023/07/03 08:41:19;;;;;;;5.68;1.42;;;;;;;16.23;69.43;100862.69;7382565;19;19918;-73
2023/07/03 08:43:51;;;;;;;8.00;1.38;;;;;;;16.37;69.26;100877.09;7380217;19;19932;-73
2023/07/03 08:46:24;;;;;;;;;;;;;;;16.35;66.16;100872.69;7384394;19;20651;-73
2023/07/03 08:48:57;;;;;;;4.57;0.85;;;;;;;16.50;66.35;100887.91;7380202;19;19931;-73
2023/07/03 08:51:30;;;;;;;2.17;0.93;;;;;;;16.53;64.84;100885.59;7380794;19;19926;-72
2023/07/03 08:54:13;;;;;;;3.63;0.82;;;;;;;16.52;64.91;100883.94;7378969;19;19930;-73
2023/07/03 08:56:42;;;;;;;3.03;0.70;;;;;;;16.51;65.33;100884.16;7382786;19;19998;-73
2023/07/03 08:59:11;;;;;;;3.05;1.10;;;;;;;16.48;65.03;100879.97;7377126;19;20075;-72
2023/07/03 09:01:50;;;;;;;4.95;0.77;;;;;;;16.43;64.50;100868.91;7381074;19;20549;-73
2023/07/03 09:04:42;;;;;;;3.17;0.93;;;;;;;16.53;65.03;100876.59;7379334;19;19928;-73
2023/07/03 09:07:14;;;;;;;5.82;1.20;;;;;;;16.64;64.06;100882.25;7379851;19;20853;-72
2023/07/03 09:09:45;;;;;;;;;;;;;;;16.75;62.93;100876.09;7384001;19;19950;-73
2023/07/03 09:12:25;;;;;;;3.53;0.73;;;;;;;16.95;62.28;100886.91;7380244;19;19930;-73
2023/07/03 09:15:00;;;;;;;2.55;0.88;;;;;;;16.97;61.75;100868.44;7378025;19;19926;-73
2023/07/03 09:17:32;;;;;;;5.18;1.27;;;;;;;16.93;61.82;100880.84;7379708;19;19941;-73
2023/07/03 09:20:04;;;;;;;3.60;0.77;;;;;;;16.85;62.22;100902.84;7382768;19;19922;-73
2023/07/03 09:22:42;;;;;;;4.88;0.68;;;;;;;16.79;63.42;100884.66;7378379;19;19942;-73
2023/07/03 09:25:17;;;;;;;3.65;0.77;;;;;;;16.84;62.88;100879.41;7379893;19;19922;-73
2023/07/03 09:27:48;;;;;;;7.38;1.23;;;;;;;17.08;62.98;100877.81;7378480;19;19914;-73
2023/07/03 09:30:17;;;;;;;7.75;1.30;;;;;;;17.18;62.21;100867.25;7381873;19;19922;-74
2023/07/03 09:32:48;;;;;;;4.32;0.73;;;;;;;17.13;59.30;100878.81;7379540;19;19922;-73
2023/07/03 09:35:19;;;;;;;2.15;0.60;;;;;;;17.11;59.72;100886.38;7378949;19;19950;-72
2023/07/03 09:37:51;;;;;;;4.35;0.73;;;;;;;17.05;58.95;100884.53;7377323;19;19922;-73
2023/07/03 09:40:25;;;;;;;3.97;0.77;;;;;;;17.00;59.48;100899.84;7378748;19;20597;-73
2023/07/03 09:42:54;;;;;;;4.30;0.90;;;;;;;16.85;61.29;100900.13;7380742;19;19932;-73
2023/07/03 09:45:26;;;;;;;3.80;0.85;;;;;;;16.68;63.22;100920.72;7378641;19;19918;-73
2023/07/03 09:47:58;;;;;;;;;;;;;;;16.31;65.59;100941.28;7383166;19;19926;-73
2023/07/03 09:50:30;;;;;;;5.00;0.90;;;;;;;16.23;67.63;100942.38;7380103;19;19926;-73
2023/07/03 09:53:00;;;;;;;3.33;1.42;;;;;;;16.18;66.99;100934.00;7376214;19;19924;-73
2023/07/03 09:55:29;;;;;;;2.45;0.80;;;;;;;16.20;68.21;100926.50;7379683;19;20271;-73
2023/07/03 09:57:58;;;;;;;4.68;0.73;;;;;;;16.24;67.59;100925.00;7379334;19;20376;-73
2023/07/03 10:00:28;;;;;;;5.45;0.88;;;;;;;16.28;67.04;100922.69;7374677;19;19919;-73
2023/07/03 10:03:00;;;;;;;3.97;0.95;;;;;;;16.34;65.98;100922.69;7378981;19;19923;-72
2023/07/03 10:05:31;;;;;;;;;;;;;;;16.29;67.62;100913.50;7379053;19;19961;-72
2023/07/03 10:08:06;;;;;;;1.85;0.60;;;;;;;16.63;65.25;100912.38;7374343;19;19926;-72
2023/07/03 10:10:36;;;;;;;4.03;0.80;;;;;;;16.97;65.31;100912.00;7380442;19;20335;-71
2023/07/03 10:13:11;;;;;;;3.55;0.82;;;;;;;17.11;66.07;100919.03;7379204;19;19918;-74
2023/07/03 10:15:43;;;;;;;4.63;1.05;;;;;;;17.13;64.68;100914.19;7381258;19;20336;-77
2023/07/03 10:18:19;;;;;;;5.40;0.93;;;;;;;17.20;65.31;100916.91;7390088;19;19982;-78
2023/07/03 10:20:51;;;;;;;2.58;0.73;;;;;;;17.24;65.70;100927.13;7385614;19;19919;-77
2023/07/03 10:23:24;;;;;;;4.55;0.90;;;;;;;17.22;61.51;100929.22;7385927;19;19987;-77
2023/07/03 10:25:57;;;;;;;3.35;0.65;;;;;;;17.11;58.06;100946.25;7386150;19;19926;-76
2023/07/03 10:28:31;;;;;;;3.25;0.50;;;;;;;17.14;58.65;100929.50;7383440;19;19933;-76
2023/07/03 10:31:03;;;;;;;2.83;0.40;;;;;;;17.21;57.84;100932.19;7386673;19;19919;-77
2023/07/03 10:33:43;;;;;;;3.03;0.50;;;;;;;17.32;57.32;100931.47;7383505;19;19926;-81
2023/07/03 10:36:17;;;;;;;2.92;0.60;;;;;;;17.48;57.49;100941.00;7384671;19;20530;-81
2023/07/03 10:38:55;;;;;;;5.15;0.73;;;;;;;17.62;56.18;100942.59;7385799;19;19930;-82
2023/07/03 10:41:28;;;;;;;2.08;0.65;;;;;;;17.68;55.41;100941.72;7401972;19;19923;-82
2023/07/03 10:44:00;;;;;;;1.52;0.60;;;;;;;17.79;57.65;100935.53;7397122;19;19978;-82
2023/07/03 10:46:30;;;;;;;;;;;;;;;17.63;57.75;100928.78;7410785;19;19972;-82
2023/07/03 10:49:07;;;;;;;3.75;0.82;;;;;;;17.50;57.58;100942.47;7391265;19;19943;-82
2023/07/03 10:51:44;;;;;;;3.40;0.60;;;;;;;17.32;57.79;100946.97;7390825;19;19966;-83
2023/07/03 10:54:19;;;;;;;1.85;0.70;;;;;;;17.13;58.94;100935.97;7384554;19;19951;-83
2023/07/03 10:56:50;;;;;;;1.75;0.60;;;;;;;17.03;60.45;100949.25;7384136;19;19929;-82
2023/07/03 10:59:23;;;;;;;1.70;0.80;;;;;;;16.84;58.86;100969.22;7383856;19;19927;-82
2023/07/03 11:02:04;;;;;;;2.28;0.60;;;;;;;16.70;58.34;100932.22;7383710;19;19945;-82
2023/07/03 11:04:47;;;;;;;1.17;0.50;;;;;;;16.56;57.40;100945.03;7384691;19;20045;-82
2023/07/03 11:07:23;;;;;;;2.75;0.60;;;;;;;16.61;58.25;100942.50;7385137;19;20007;-83
2023/07/03 11:10:01;;;;;;;1.90;0.43;;;;;;;16.61;58.04;100938.97;7389096;19;19922;-83
2023/07/03 11:12:37;;;;;;;0.82;0.40;;;;;;;16.60;58.22;100937.28;7385014;19;20459;-82
2023/07/03 11:15:22;;;;;;;1.65;0.60;;;;;;;16.78;57.81;100934.72;7385636;19;22210;-83
2023/07/03 11:18:01;;;;;;;0.98;0.40;;;;;;;17.20;57.28;100936.78;7384431;19;20240;-82
2023/07/03 11:20:40;;;;;;;1.25;0.60;;;;;;;17.58;55.74;100928.59;7383695;19;19926;-83
2023/07/03 11:23:19;;;;;;;4.43;0.50;;;;;;;17.91;56.56;100919.28;7378764;19;19929;-82
2023/07/03 11:25:55;;;;;;;3.95;1.10;;;;;;;18.24;55.95;100924.44;7381640;19;19955;-75
2023/07/03 11:28:32;;;;;;;3.35;0.75;;;;;;;18.64;55.09;100925.66;7377104;19;19946;-71
2023/07/03 11:31:02;;;;;;;3.67;1.10;;;;;;;19.01;54.74;100926.47;7382608;19;19926;-71
2023/07/03 11:33:33;;;;;;;3.22;0.80;;;;;;;19.19;54.68;100912.78;7382198;19;22046;-71
2023/07/03 11:36:05;;;;;;;4.25;0.95;;;;;;;19.12;54.25;100933.84;7382801;19;19915;-72
2023/07/03 11:38:37;;;;;;;3.55;1.20;;;;;;;19.06;55.67;100926.63;7379636;19;19927;-71
2023/07/03 11:41:11;;;;;;;1.95;0.65;;;;;;;18.92;54.43;100928.69;7377262;19;19914;-71